Xichang, China
Current Conditions -  °F | °C
As of 5:00 AM on Thursday 18 Dec 2014 (Local Time) from ZPPP Reporting Station
Haze Haze  
Wind Chill: 28°   Ceiling: 3000
Heat Index: 34°   Visibility: 1.6mi
Dew Point: 34°   Wind: 7mph
Humidity: 100%   Direction: 10°N
Pressure: 30.24"   Gusts: NA
Location:  27.88°N, 102.3°E
Report Text: ZPPP 172100Z 01003MPS 2700 BR SCT006 OVC030 01/01 Q1024 NOSIG
Loading
Personal Weather Stations






























Interactive Weather Map New forecast layout! Learn more

10-Day Weather Forecast

Advertisements
Track Severe Weather on mobile